| Date | Temp | Humidity | Rainfall | Dew Point | Wind Direction | Wind Speed | Wind Pressure | Condition | Visibility |
|---|---|---|---|---|---|---|---|---|---|
| 2025-04-25 20:57:30 | 27 | 88 | 0.0 | 25 | 080 | 3.8 | 1011 | Partly Cloudy (Night) | 10 KM |
| 2025-04-25 19:57:53 | 28 | 78 | 0.0 | 24 | 030 | 5.7 | 1010 | Partly Cloudy (Night) | 10 KM |
| 2025-04-25 18:58:57 | 29 | 72 | 23 | 010 | 5.7 | 1010 | Partly Cloudy (Night) | 10 KM | |
| 2025-04-25 17:58:00 | 30 | 68 | 0.0 | 23 | 020 | 7.6 | 1009 | Partly Cloudy (Night) | 10 KM |
| 2025-04-25 16:59:56 | 30 | 68 | 24 | 030 | 9.5 | 1009 | Partly Cloudy (Day) | 20 KM | |
| 2025-04-25 15:59:56 | 31 | 68 | 24 | 350 | 11.4 | 1009 | Partly Cloudy (Day) | 15 KM | |
| 2025-04-25 14:59:46 | 31 | 65 | 24 | 340 | 13.3 | 1010 | Distant showers | 10 KM | |
| 2025-04-25 14:00:52 | 31 | 64 | 24 | 070 | 5.7 | 1010 | Distant showers | 10 KM | |
| 2025-04-25 13:04:28 | 28 | 76 | 0.00 | 23 | 150 | 7.6 | 1011 | Showers | 09KM |
| 2025-04-25 12:01:38 | 31 | 69 | 0.01 | 24 | 210 | 3.8 | 1012 | Showers | 10KM |
| 2025-04-25 11:05:36 | 30 | 70 | 0.00 | 25 | 190 | 5.7 | 1012 | Partly Cloudy (Day) | 20KM |
| 2025-04-25 10:00:52 | 29 | 74 | 24 | 160 | 5.7 | 1013 | Partly Cloudy (Day) | 15 km | |
| 2025-04-25 09:01:35 | 27 | 81 | 23 | 160 | 3.8 | 1013 | Showers | 10 km | |
| 2025-04-25 08:22:06 | 24 | 93 | 0.0 | 23 | 170 | 6 | 1013 | Showers | 9 km |
| 2025-04-25 07:09:40 | 25 | 92 | 0.01 | 24 | 320 | 20 | 1013 | Thundershowers | 10 km |
| 2025-04-25 06:00:51 | 25 | 93 | 0.0 | 24 | 220 | 8 | 1011 | Thunderstorm | 10 |
| 2025-04-25 05:00:52 | 25 | 91 | 0.0 | 24 | 160 | 6 | 1010 | Night Thunderstorm | 10 |
| 2025-04-25 03:59:14 | 26 | 91 | 0.0 | 24 | 210 | 8 | 1010 | Night Thunderstorm | 10 |
| 2025-04-25 03:07:41 | 26 | 93 | 0.0 | 24 | 220 | 8 | 1011 | Cloudy | 10 |
| 2025-04-25 01:59:39 | 26 | 94 | 25 | 220 | 5.7 | 1011 | Night Shower | 10KM | |
| 2025-04-25 01:28:05 | 26 | 92 | 24 | 210 | 9.5 | 1011 | Partly Cloudy (Night) | 10KM | |
| 2025-04-25 00:58:33 | 26 | 92 | 25 | 200 | 3.8 | 1011 | Partly Cloudy (Night) | 10KM | |
| 2025-04-25 00:05:19 | 26 | 93 | 25 | 220 | 5.7 | 1011 | Partly Cloudy (Night) | 10KM | |
| 2025-04-24 22:57:30 | 27 | 90 | 25 | 190 | 5.7 | 1012 | Partly Cloudy (Night) | 10KM | |
| 2025-04-24 21:59:09 | 27 | 86 | 25 | 190 | 9.5 | 1012 | Partly Cloudy (Night) | 10KM |